sensor_id;sensor_type;location;lat;lon;timestamp;P1;durP1;ratioP1;P2;durP2;ratioP2
64875;SDS011;51369;49.862;9.908;2023-11-21T00:00:53;4.60;;;1.80;;
64875;SDS011;51369;49.862;9.908;2023-11-21T00:03:18;8.05;;;2.63;;
64875;SDS011;51369;49.862;9.908;2023-11-21T00:05:44;4.20;;;1.52;;
64875;SDS011;51369;49.862;9.908;2023-11-21T00:08:09;6.85;;;1.90;;
64875;SDS011;51369;49.862;9.908;2023-11-21T00:10:36;4.45;;;2.13;;
64875;SDS011;51369;49.862;9.908;2023-11-21T00:13:04;6.72;;;1.80;;
64875;SDS011;51369;49.862;9.908;2023-11-21T00:15:29;6.90;;;2.55;;
64875;SDS011;51369;49.862;9.908;2023-11-21T00:17:55;5.07;;;1.70;;
64875;SDS011;51369;49.862;9.908;2023-11-21T00:20:20;5.35;;;2.33;;
64875;SDS011;51369;49.862;9.908;2023-11-21T00:22:46;4.40;;;1.90;;
64875;SDS011;51369;49.862;9.908;2023-11-21T00:25:12;4.32;;;2.42;;
64875;SDS011;51369;49.862;9.908;2023-11-21T00:27:40;6.07;;;2.17;;
64875;SDS011;51369;49.862;9.908;2023-11-21T00:30:05;9.00;;;2.55;;
64875;SDS011;51369;49.862;9.908;2023-11-21T00:32:32;7.20;;;2.55;;
64875;SDS011;51369;49.862;9.908;2023-11-21T00:34:58;10.68;;;2.72;;
64875;SDS011;51369;49.862;9.908;2023-11-21T00:37:24;5.57;;;2.53;;
64875;SDS011;51369;49.862;9.908;2023-11-21T00:39:50;6.18;;;2.78;;
64875;SDS011;51369;49.862;9.908;2023-11-21T00:42:15;7.43;;;2.90;;
64875;SDS011;51369;49.862;9.908;2023-11-21T00:44:40;7.03;;;3.92;;
64875;SDS011;51369;49.862;9.908;2023-11-21T00:47:05;3.80;;;2.72;;
64875;SDS011;51369;49.862;9.908;2023-11-21T00:49:32;4.72;;;2.58;;
64875;SDS011;51369;49.862;9.908;2023-11-21T00:51:57;8.80;;;2.90;;
64875;SDS011;51369;49.862;9.908;2023-11-21T00:54:25;8.05;;;2.88;;
64875;SDS011;51369;49.862;9.908;2023-11-21T00:56:52;7.43;;;2.88;;
64875;SDS011;51369;49.862;9.908;2023-11-21T00:59:17;7.88;;;2.63;;
64875;SDS011;51369;49.862;9.908;2023-11-21T01:01:42;11.30;;;2.92;;
64875;SDS011;51369;49.862;9.908;2023-11-21T01:04:08;5.50;;;3.42;;
64875;SDS011;51369;49.862;9.908;2023-11-21T01:06:33;6.68;;;3.78;;
64875;SDS011;51369;49.862;9.908;2023-11-21T01:08:58;8.13;;;3.10;;
64875;SDS011;51369;49.862;9.908;2023-11-21T01:11:24;7.72;;;3.00;;
64875;SDS011;51369;49.862;9.908;2023-11-21T01:13:49;5.43;;;3.00;;
64875;SDS011;51369;49.862;9.908;2023-11-21T01:16:15;5.88;;;3.30;;
64875;SDS011;51369;49.862;9.908;2023-11-21T01:18:40;5.20;;;2.83;;
64875;SDS011;51369;49.862;9.908;2023-11-21T01:21:06;8.65;;;3.05;;
64875;SDS011;51369;49.862;9.908;2023-11-21T01:23:32;4.43;;;2.63;;
64875;SDS011;51369;49.862;9.908;2023-11-21T01:25:57;6.93;;;3.20;;
64875;SDS011;51369;49.862;9.908;2023-11-21T01:28:23;5.80;;;3.35;;
64875;SDS011;51369;49.862;9.908;2023-11-21T01:30:48;4.78;;;3.13;;
64875;SDS011;51369;49.862;9.908;2023-11-21T01:33:14;4.63;;;3.45;;
64875;SDS011;51369;49.862;9.908;2023-11-21T01:35:41;6.90;;;3.92;;
64875;SDS011;51369;49.862;9.908;2023-11-21T01:38:07;8.40;;;3.25;;
64875;SDS011;51369;49.862;9.908;2023-11-21T01:40:35;6.88;;;3.45;;
64875;SDS011;51369;49.862;9.908;2023-11-21T01:43:01;7.85;;;3.33;;
64875;SDS011;51369;49.862;9.908;2023-11-21T01:45:29;6.32;;;3.67;;
64875;SDS011;51369;49.862;9.908;2023-11-21T01:47:56;7.28;;;3.42;;
64875;SDS011;51369;49.862;9.908;2023-11-21T01:50:23;6.25;;;3.60;;
64875;SDS011;51369;49.862;9.908;2023-11-21T01:52:49;5.60;;;3.20;;
64875;SDS011;51369;49.862;9.908;2023-11-21T01:55:16;7.88;;;3.20;;
64875;SDS011;51369;49.862;9.908;2023-11-21T01:57:45;6.00;;;3.22;;
64875;SDS011;51369;49.862;9.908;2023-11-21T02:00:11;12.55;;;3.42;;
64875;SDS011;51369;49.862;9.908;2023-11-21T02:02:47;5.60;;;3.38;;
64875;SDS011;51369;49.862;9.908;2023-11-21T02:05:17;7.32;;;3.42;;
64875;SDS011;51369;49.862;9.908;2023-11-21T02:07:44;7.78;;;2.65;;
64875;SDS011;51369;49.862;9.908;2023-11-21T02:10:11;9.90;;;3.35;;
64875;SDS011;51369;49.862;9.908;2023-11-21T02:12:43;5.20;;;2.88;;
64875;SDS011;51369;49.862;9.908;2023-11-21T02:15:10;7.05;;;3.20;;
64875;SDS011;51369;49.862;9.908;2023-11-21T02:17:41;10.45;;;3.10;;
64875;SDS011;51369;49.862;9.908;2023-11-21T02:20:12;7.88;;;3.40;;
64875;SDS011;51369;49.862;9.908;2023-11-21T02:22:43;9.02;;;2.97;;
64875;SDS011;51369;49.862;9.908;2023-11-21T02:25:28;5.32;;;2.70;;
64875;SDS011;51369;49.862;9.908;2023-11-21T02:27:55;9.10;;;2.88;;
64875;SDS011;51369;49.862;9.908;2023-11-21T02:30:25;3.78;;;2.58;;
64875;SDS011;51369;49.862;9.908;2023-11-21T02:32:51;3.97;;;2.40;;
64875;SDS011;51369;49.862;9.908;2023-11-21T02:35:22;6.15;;;3.15;;
64875;SDS011;51369;49.862;9.908;2023-11-21T02:37:47;4.20;;;2.70;;
64875;SDS011;51369;49.862;9.908;2023-11-21T02:40:13;5.30;;;2.78;;
64875;SDS011;51369;49.862;9.908;2023-11-21T02:42:42;5.88;;;2.80;;
64875;SDS011;51369;49.862;9.908;2023-11-21T02:45:08;5.53;;;3.05;;
64875;SDS011;51369;49.862;9.908;2023-11-21T02:47:35;4.88;;;3.10;;
64875;SDS011;51369;49.862;9.908;2023-11-21T02:50:00;9.95;;;3.88;;
64875;SDS011;51369;49.862;9.908;2023-11-21T02:52:26;6.72;;;2.72;;
64875;SDS011;51369;49.862;9.908;2023-11-21T02:54:51;17.92;;;3.20;;
64875;SDS011;51369;49.862;9.908;2023-11-21T02:57:18;7.03;;;3.03;;
64875;SDS011;51369;49.862;9.908;2023-11-21T02:59:43;5.82;;;2.38;;
64875;SDS011;51369;49.862;9.908;2023-11-21T03:02:11;6.60;;;2.33;;
64875;SDS011;51369;49.862;9.908;2023-11-21T03:04:37;3.70;;;2.05;;
64875;SDS011;51369;49.862;9.908;2023-11-21T03:07:02;9.70;;;2.33;;
64875;SDS011;51369;49.862;9.908;2023-11-21T03:09:27;6.00;;;2.83;;
64875;SDS011;51369;49.862;9.908;2023-11-21T03:11:53;4.30;;;2.47;;
64875;SDS011;51369;49.862;9.908;2023-11-21T03:14:20;6.18;;;2.53;;
64875;SDS011;51369;49.862;9.908;2023-11-21T03:16:45;8.30;;;3.10;;
64875;SDS011;51369;49.862;9.908;2023-11-21T03:19:11;6.20;;;3.00;;
64875;SDS011;51369;49.862;9.908;2023-11-21T03:21:36;8.15;;;3.03;;
64875;SDS011;51369;49.862;9.908;2023-11-21T03:24:02;3.85;;;2.80;;
64875;SDS011;51369;49.862;9.908;2023-11-21T03:26:28;4.18;;;2.80;;
64875;SDS011;51369;49.862;9.908;2023-11-21T03:28:55;8.50;;;3.10;;
64875;SDS011;51369;49.862;9.908;2023-11-21T03:31:20;5.47;;;3.35;;
64875;SDS011;51369;49.862;9.908;2023-11-21T03:33:46;6.57;;;3.38;;
64875;SDS011;51369;49.862;9.908;2023-11-21T03:36:12;7.70;;;3.13;;
64875;SDS011;51369;49.862;9.908;2023-11-21T03:38:37;7.30;;;3.08;;
64875;SDS011;51369;49.862;9.908;2023-11-21T03:41:04;6.75;;;3.05;;
64875;SDS011;51369;49.862;9.908;2023-11-21T03:43:30;8.00;;;3.00;;
64875;SDS011;51369;49.862;9.908;2023-11-21T03:45:55;7.32;;;3.40;;
64875;SDS011;51369;49.862;9.908;2023-11-21T03:48:20;12.23;;;4.10;;
64875;SDS011;51369;49.862;9.908;2023-11-21T03:50:46;4.00;;;3.35;;
64875;SDS011;51369;49.862;9.908;2023-11-21T03:53:12;7.50;;;3.42;;
64875;SDS011;51369;49.862;9.908;2023-11-21T03:55:37;8.02;;;3.20;;
64875;SDS011;51369;49.862;9.908;2023-11-21T03:58:03;9.60;;;3.50;;
64875;SDS011;51369;49.862;9.908;2023-11-21T04:00:28;8.82;;;3.83;;
64875;SDS011;51369;49.862;9.908;2023-11-21T04:02:54;10.73;;;3.80;;
64875;SDS011;51369;49.862;9.908;2023-11-21T04:05:19;6.38;;;3.45;;
64875;SDS011;51369;49.862;9.908;2023-11-21T04:07:46;6.38;;;3.20;;
64875;SDS011;51369;49.862;9.908;2023-11-21T04:10:12;6.13;;;3.42;;
64875;SDS011;51369;49.862;9.908;2023-11-21T04:12:38;7.78;;;3.55;;
64875;SDS011;51369;49.862;9.908;2023-11-21T04:15:03;9.52;;;3.00;;
64875;SDS011;51369;49.862;9.908;2023-11-21T04:17:29;11.40;;;2.90;;
64875;SDS011;51369;49.862;9.908;2023-11-21T04:19:54;6.32;;;2.80;;
64875;SDS011;51369;49.862;9.908;2023-11-21T04:22:19;6.10;;;3.40;;
64875;SDS011;51369;49.862;9.908;2023-11-21T04:24:45;3.80;;;2.72;;
64875;SDS011;51369;49.862;9.908;2023-11-21T04:27:11;7.63;;;3.08;;
64875;SDS011;51369;49.862;9.908;2023-11-21T04:29:36;12.18;;;3.80;;
64875;SDS011;51369;49.862;9.908;2023-11-21T04:32:01;8.52;;;4.35;;
64875;SDS011;51369;49.862;9.908;2023-11-21T04:34:28;6.50;;;4.40;;
64875;SDS011;51369;49.862;9.908;2023-11-21T04:36:56;7.93;;;4.25;;
64875;SDS011;51369;49.862;9.908;2023-11-21T04:39:22;11.88;;;4.95;;
64875;SDS011;51369;49.862;9.908;2023-11-21T04:41:47;15.07;;;5.30;;
64875;SDS011;51369;49.862;9.908;2023-11-21T04:44:12;10.07;;;4.50;;
64875;SDS011;51369;49.862;9.908;2023-11-21T04:46:38;10.48;;;5.05;;
64875;SDS011;51369;49.862;9.908;2023-11-21T04:49:03;11.07;;;4.70;;
64875;SDS011;51369;49.862;9.908;2023-11-21T04:51:28;8.60;;;4.50;;
64875;SDS011;51369;49.862;9.908;2023-11-21T04:53:54;7.55;;;4.25;;
64875;SDS011;51369;49.862;9.908;2023-11-21T04:56:19;9.65;;;4.65;;
64875;SDS011;51369;49.862;9.908;2023-11-21T04:58:45;7.55;;;4.38;;
64875;SDS011;51369;49.862;9.908;2023-11-21T05:01:10;6.45;;;5.32;;
64875;SDS011;51369;49.862;9.908;2023-11-21T05:03:36;9.60;;;5.50;;
64875;SDS011;51369;49.862;9.908;2023-11-21T05:06:03;11.82;;;4.95;;
64875;SDS011;51369;49.862;9.908;2023-11-21T05:08:30;10.52;;;5.65;;
64875;SDS011;51369;49.862;9.908;2023-11-21T05:10:55;14.52;;;5.88;;
64875;SDS011;51369;49.862;9.908;2023-11-21T05:13:21;11.02;;;6.22;;
64875;SDS011;51369;49.862;9.908;2023-11-21T05:15:47;13.75;;;6.25;;
64875;SDS011;51369;49.862;9.908;2023-11-21T05:18:12;10.68;;;6.15;;
64875;SDS011;51369;49.862;9.908;2023-11-21T05:20:41;12.57;;;5.47;;
64875;SDS011;51369;49.862;9.908;2023-11-21T05:23:06;14.07;;;5.60;;
64875;SDS011;51369;49.862;9.908;2023-11-21T05:25:33;12.07;;;7.05;;
64875;SDS011;51369;49.862;9.908;2023-11-21T05:27:59;24.75;;;11.48;;
64875;SDS011;51369;49.862;9.908;2023-11-21T05:30:26;20.20;;;9.82;;
64875;SDS011;51369;49.862;9.908;2023-11-21T05:32:52;24.80;;;11.43;;
64875;SDS011;51369;49.862;9.908;2023-11-21T05:35:18;27.48;;;13.40;;
64875;SDS011;51369;49.862;9.908;2023-11-21T05:37:44;27.67;;;10.23;;
64875;SDS011;51369;49.862;9.908;2023-11-21T05:40:10;19.88;;;8.32;;
64875;SDS011;51369;49.862;9.908;2023-11-21T05:42:36;20.15;;;7.90;;
64875;SDS011;51369;49.862;9.908;2023-11-21T05:45:03;13.82;;;6.65;;
64875;SDS011;51369;49.862;9.908;2023-11-21T05:47:35;9.07;;;5.10;;
64875;SDS011;51369;49.862;9.908;2023-11-21T05:50:02;9.00;;;5.28;;
64875;SDS011;51369;49.862;9.908;2023-11-21T05:52:29;9.00;;;5.30;;
64875;SDS011;51369;49.862;9.908;2023-11-21T05:54:55;15.32;;;7.82;;
64875;SDS011;51369;49.862;9.908;2023-11-21T05:57:20;26.65;;;10.30;;
64875;SDS011;51369;49.862;9.908;2023-11-21T05:59:46;25.45;;;11.10;;
64875;SDS011;51369;49.862;9.908;2023-11-21T06:02:11;26.30;;;9.73;;
64875;SDS011;51369;49.862;9.908;2023-11-21T06:04:37;66.07;;;20.50;;
64875;SDS011;51369;49.862;9.908;2023-11-21T06:07:02;63.20;;;19.67;;
64875;SDS011;51369;49.862;9.908;2023-11-21T06:09:28;24.90;;;9.98;;
64875;SDS011;51369;49.862;9.908;2023-11-21T06:11:53;30.33;;;12.38;;
64875;SDS011;51369;49.862;9.908;2023-11-21T06:14:18;28.70;;;10.98;;
64875;SDS011;51369;49.862;9.908;2023-11-21T06:16:43;17.20;;;8.85;;
64875;SDS011;51369;49.862;9.908;2023-11-21T06:19:10;20.83;;;9.00;;
64875;SDS011;51369;49.862;9.908;2023-11-21T06:21:36;19.23;;;7.78;;
64875;SDS011;51369;49.862;9.908;2023-11-21T06:24:01;17.30;;;8.05;;
64875;SDS011;51369;49.862;9.908;2023-11-21T06:26:27;16.63;;;6.97;;
64875;SDS011;51369;49.862;9.908;2023-11-21T06:28:53;13.00;;;7.22;;
64875;SDS011;51369;49.862;9.908;2023-11-21T06:31:18;16.45;;;7.78;;
64875;SDS011;51369;49.862;9.908;2023-11-21T06:33:44;20.58;;;8.27;;
64875;SDS011;51369;49.862;9.908;2023-11-21T06:36:09;15.05;;;7.47;;
64875;SDS011;51369;49.862;9.908;2023-11-21T06:38:36;17.02;;;8.63;;
64875;SDS011;51369;49.862;9.908;2023-11-21T06:41:02;13.73;;;6.57;;
64875;SDS011;51369;49.862;9.908;2023-11-21T06:43:29;11.57;;;5.72;;
64875;SDS011;51369;49.862;9.908;2023-11-21T06:45:56;14.07;;;6.35;;
64875;SDS011;51369;49.862;9.908;2023-11-21T06:48:22;12.25;;;8.77;;
64875;SDS011;51369;49.862;9.908;2023-11-21T06:50:47;14.00;;;6.10;;
64875;SDS011;51369;49.862;9.908;2023-11-21T06:53:12;13.93;;;7.07;;
64875;SDS011;51369;49.862;9.908;2023-11-21T06:55:38;13.73;;;7.35;;
64875;SDS011;51369;49.862;9.908;2023-11-21T06:58:04;20.25;;;7.30;;
64875;SDS011;51369;49.862;9.908;2023-11-21T07:00:30;12.38;;;7.63;;
64875;SDS011;51369;49.862;9.908;2023-11-21T07:02:55;15.52;;;6.97;;
64875;SDS011;51369;49.862;9.908;2023-11-21T07:05:21;16.77;;;8.48;;
64875;SDS011;51369;49.862;9.908;2023-11-21T07:07:47;15.85;;;8.55;;
64875;SDS011;51369;49.862;9.908;2023-11-21T07:10:14;13.65;;;7.95;;
64875;SDS011;51369;49.862;9.908;2023-11-21T07:12:39;19.48;;;10.02;;
64875;SDS011;51369;49.862;9.908;2023-11-21T07:15:05;19.75;;;10.52;;
64875;SDS011;51369;49.862;9.908;2023-11-21T07:17:35;18.02;;;10.40;;
64875;SDS011;51369;49.862;9.908;2023-11-21T07:20:01;21.25;;;10.75;;
64875;SDS011;51369;49.862;9.908;2023-11-21T07:22:28;17.67;;;10.88;;
64875;SDS011;51369;49.862;9.908;2023-11-21T07:24:53;25.52;;;11.27;;
64875;SDS011;51369;49.862;9.908;2023-11-21T07:27:21;21.85;;;12.27;;
64875;SDS011;51369;49.862;9.908;2023-11-21T07:29:47;19.05;;;10.32;;
64875;SDS011;51369;49.862;9.908;2023-11-21T07:32:15;19.83;;;10.32;;
64875;SDS011;51369;49.862;9.908;2023-11-21T07:34:41;17.80;;;9.93;;
64875;SDS011;51369;49.862;9.908;2023-11-21T07:37:07;24.95;;;10.98;;
64875;SDS011;51369;49.862;9.908;2023-11-21T07:39:34;20.65;;;10.77;;
64875;SDS011;51369;49.862;9.908;2023-11-21T07:42:00;20.52;;;10.32;;
64875;SDS011;51369;49.862;9.908;2023-11-21T07:44:26;27.13;;;13.07;;
64875;SDS011;51369;49.862;9.908;2023-11-21T07:46:51;22.92;;;12.43;;
64875;SDS011;51369;49.862;9.908;2023-11-21T07:49:16;22.08;;;12.93;;
64875;SDS011;51369;49.862;9.908;2023-11-21T07:51:45;23.63;;;12.75;;
64875;SDS011;51369;49.862;9.908;2023-11-21T07:54:10;29.33;;;13.02;;
64875;SDS011;51369;49.862;9.908;2023-11-21T07:56:36;31.92;;;13.68;;
64875;SDS011;51369;49.862;9.908;2023-11-21T07:59:02;32.85;;;14.55;;
64875;SDS011;51369;49.862;9.908;2023-11-21T08:01:27;30.85;;;13.23;;
64875;SDS011;51369;49.862;9.908;2023-11-21T08:03:53;27.38;;;13.73;;
64875;SDS011;51369;49.862;9.908;2023-11-21T08:06:22;34.03;;;14.82;;
64875;SDS011;51369;49.862;9.908;2023-11-21T08:08:49;40.45;;;15.05;;
64875;SDS011;51369;49.862;9.908;2023-11-21T08:11:14;32.67;;;15.25;;
64875;SDS011;51369;49.862;9.908;2023-11-21T08:13:40;37.15;;;14.80;;
64875;SDS011;51369;49.862;9.908;2023-11-21T08:16:05;31.55;;;13.95;;
64875;SDS011;51369;49.862;9.908;2023-11-21T08:18:32;31.08;;;13.35;;
64875;SDS011;51369;49.862;9.908;2023-11-21T08:20:57;30.42;;;13.50;;
64875;SDS011;51369;49.862;9.908;2023-11-21T08:23:23;34.88;;;14.02;;
64875;SDS011;51369;49.862;9.908;2023-11-21T08:25:52;31.70;;;13.90;;
64875;SDS011;51369;49.862;9.908;2023-11-21T08:28:18;35.42;;;14.00;;
64875;SDS011;51369;49.862;9.908;2023-11-21T08:30:43;33.33;;;14.30;;
64875;SDS011;51369;49.862;9.908;2023-11-21T08:33:09;48.38;;;18.70;;
64875;SDS011;51369;49.862;9.908;2023-11-21T08:35:36;37.15;;;14.70;;
64875;SDS011;51369;49.862;9.908;2023-11-21T08:38:02;33.17;;;12.95;;
64875;SDS011;51369;49.862;9.908;2023-11-21T08:40:27;30.45;;;12.38;;
64875;SDS011;51369;49.862;9.908;2023-11-21T08:42:53;25.98;;;10.60;;
64875;SDS011;51369;49.862;9.908;2023-11-21T08:45:21;22.80;;;11.00;;
64875;SDS011;51369;49.862;9.908;2023-11-21T08:47:47;25.60;;;10.73;;
64875;SDS011;51369;49.862;9.908;2023-11-21T08:50:13;21.00;;;10.35;;
64875;SDS011;51369;49.862;9.908;2023-11-21T08:52:39;20.33;;;9.77;;
64875;SDS011;51369;49.862;9.908;2023-11-21T08:55:06;20.60;;;8.98;;
64875;SDS011;51369;49.862;9.908;2023-11-21T08:57:37;19.10;;;8.55;;
64875;SDS011;51369;49.862;9.908;2023-11-21T09:00:04;16.35;;;8.32;;
64875;SDS011;51369;49.862;9.908;2023-11-21T09:02:32;20.58;;;8.20;;
64875;SDS011;51369;49.862;9.908;2023-11-21T09:04:59;15.10;;;7.85;;
64875;SDS011;51369;49.862;9.908;2023-11-21T09:07:28;16.42;;;8.80;;
64875;SDS011;51369;49.862;9.908;2023-11-21T09:09:53;17.90;;;8.77;;
64875;SDS011;51369;49.862;9.908;2023-11-21T09:12:20;14.68;;;8.95;;
64875;SDS011;51369;49.862;9.908;2023-11-21T09:14:46;17.42;;;9.60;;
64875;SDS011;51369;49.862;9.908;2023-11-21T09:17:12;18.90;;;10.50;;
64875;SDS011;51369;49.862;9.908;2023-11-21T09:19:37;21.35;;;9.80;;
64875;SDS011;51369;49.862;9.908;2023-11-21T09:22:03;17.55;;;9.77;;
64875;SDS011;51369;49.862;9.908;2023-11-21T09:24:30;21.25;;;10.25;;
64875;SDS011;51369;49.862;9.908;2023-11-21T09:26:56;23.17;;;10.10;;
64875;SDS011;51369;49.862;9.908;2023-11-21T09:29:21;18.90;;;10.73;;
64875;SDS011;51369;49.862;9.908;2023-11-21T09:31:47;16.02;;;9.35;;
64875;SDS011;51369;49.862;9.908;2023-11-21T09:34:12;17.40;;;8.35;;
64875;SDS011;51369;49.862;9.908;2023-11-21T09:36:39;14.50;;;8.50;;
64875;SDS011;51369;49.862;9.908;2023-11-21T09:39:06;17.02;;;8.48;;
64875;SDS011;51369;49.862;9.908;2023-11-21T09:41:43;14.45;;;7.63;;
64875;SDS011;51369;49.862;9.908;2023-11-21T09:44:16;15.10;;;7.82;;
64875;SDS011;51369;49.862;9.908;2023-11-21T09:46:44;15.48;;;8.15;;
64875;SDS011;51369;49.862;9.908;2023-11-21T09:49:14;13.32;;;7.55;;
64875;SDS011;51369;49.862;9.908;2023-11-21T09:51:43;16.83;;;7.80;;
64875;SDS011;51369;49.862;9.908;2023-11-21T09:54:10;12.80;;;7.50;;
64875;SDS011;51369;49.862;9.908;2023-11-21T09:56:39;15.98;;;8.55;;
64875;SDS011;51369;49.862;9.908;2023-11-21T09:59:05;16.55;;;7.45;;
64875;SDS011;51369;49.862;9.908;2023-11-21T10:01:36;11.27;;;5.70;;
64875;SDS011;51369;49.862;9.908;2023-11-21T10:04:02;13.13;;;6.65;;
64875;SDS011;51369;49.862;9.908;2023-11-21T10:06:28;12.60;;;5.32;;
64875;SDS011;51369;49.862;9.908;2023-11-21T10:08:55;10.98;;;6.00;;
64875;SDS011;51369;49.862;9.908;2023-11-21T10:11:24;12.98;;;6.10;;
64875;SDS011;51369;49.862;9.908;2023-11-21T10:13:55;11.43;;;4.75;;
64875;SDS011;51369;49.862;9.908;2023-11-21T10:16:22;8.55;;;4.00;;
64875;SDS011;51369;49.862;9.908;2023-11-21T10:18:52;9.57;;;4.50;;
64875;SDS011;51369;49.862;9.908;2023-11-21T10:21:21;6.65;;;4.32;;
64875;SDS011;51369;49.862;9.908;2023-11-21T10:23:46;7.70;;;3.67;;
64875;SDS011;51369;49.862;9.908;2023-11-21T10:26:12;8.40;;;4.18;;
64875;SDS011;51369;49.862;9.908;2023-11-21T10:28:54;8.43;;;3.95;;
64875;SDS011;51369;49.862;9.908;2023-11-21T10:31:23;6.47;;;3.97;;
64875;SDS011;51369;49.862;9.908;2023-11-21T10:33:49;8.10;;;3.90;;
64875;SDS011;51369;49.862;9.908;2023-11-21T10:36:25;9.02;;;3.67;;
64875;SDS011;51369;49.862;9.908;2023-11-21T10:38:52;7.43;;;3.17;;
64875;SDS011;51369;49.862;9.908;2023-11-21T10:41:18;7.38;;;3.17;;
64875;SDS011;51369;49.862;9.908;2023-11-21T10:43:44;6.38;;;3.15;;
64875;SDS011;51369;49.862;9.908;2023-11-21T10:46:09;8.48;;;3.05;;
64875;SDS011;51369;49.862;9.908;2023-11-21T10:48:35;6.90;;;2.47;;
64875;SDS011;51369;49.862;9.908;2023-11-21T10:51:01;8.55;;;3.33;;
64875;SDS011;51369;49.862;9.908;2023-11-21T10:53:32;7.38;;;2.55;;
64875;SDS011;51369;49.862;9.908;2023-11-21T10:56:05;5.82;;;3.13;;
64875;SDS011;51369;49.862;9.908;2023-11-21T10:58:32;7.93;;;3.95;;
64875;SDS011;51369;49.862;9.908;2023-11-21T11:00:58;7.68;;;3.78;;
64875;SDS011;51369;49.862;9.908;2023-11-21T11:03:25;5.13;;;3.10;;
64875;SDS011;51369;49.862;9.908;2023-11-21T11:05:51;6.50;;;3.70;;
64875;SDS011;51369;49.862;9.908;2023-11-21T11:08:18;5.80;;;3.63;;
64875;SDS011;51369;49.862;9.908;2023-11-21T11:10:50;8.15;;;3.85;;
64875;SDS011;51369;49.862;9.908;2023-11-21T11:13:15;8.48;;;3.10;;
64875;SDS011;51369;49.862;9.908;2023-11-21T11:15:41;3.75;;;2.70;;
64875;SDS011;51369;49.862;9.908;2023-11-21T11:18:08;8.18;;;3.20;;
64875;SDS011;51369;49.862;9.908;2023-11-21T11:20:35;8.05;;;2.80;;
64875;SDS011;51369;49.862;9.908;2023-11-21T11:23:14;5.68;;;2.70;;
64875;SDS011;51369;49.862;9.908;2023-11-21T11:26:05;4.65;;;2.60;;
64875;SDS011;51369;49.862;9.908;2023-11-21T11:34:30;6.38;;;3.40;;
64875;SDS011;51369;49.862;9.908;2023-11-21T11:37:00;8.20;;;3.10;;
64875;SDS011;51369;49.862;9.908;2023-11-21T11:39:30;8.43;;;3.30;;
64875;SDS011;51369;49.862;9.908;2023-11-21T11:42:02;5.55;;;3.45;;
64875;SDS011;51369;49.862;9.908;2023-11-21T11:47:22;7.07;;;3.40;;
64875;SDS011;51369;49.862;9.908;2023-11-21T11:50:02;5.28;;;3.38;;
64875;SDS011;51369;49.862;9.908;2023-11-21T11:55:05;6.05;;;3.10;;
64875;SDS011;51369;49.862;9.908;2023-11-21T11:57:35;8.18;;;3.72;;
64875;SDS011;51369;49.862;9.908;2023-11-21T12:00:11;6.97;;;3.47;;
64875;SDS011;51369;49.862;9.908;2023-11-21T12:02:38;4.60;;;3.10;;
64875;SDS011;51369;49.862;9.908;2023-11-21T12:05:08;7.78;;;3.97;;
64875;SDS011;51369;49.862;9.908;2023-11-21T12:07:51;6.35;;;3.50;;
64875;SDS011;51369;49.862;9.908;2023-11-21T12:10:19;5.93;;;3.72;;
64875;SDS011;51369;49.862;9.908;2023-11-21T12:12:50;8.95;;;3.65;;
64875;SDS011;51369;49.862;9.908;2023-11-21T12:15:19;7.38;;;3.15;;
64875;SDS011;51369;49.862;9.908;2023-11-21T12:17:46;8.55;;;3.38;;
64875;SDS011;51369;49.862;9.908;2023-11-21T12:20:12;7.75;;;2.95;;
64875;SDS011;51369;49.862;9.908;2023-11-21T12:22:45;4.90;;;2.75;;
64875;SDS011;51369;49.862;9.908;2023-11-21T12:25:22;3.25;;;2.30;;
64875;SDS011;51369;49.862;9.908;2023-11-21T12:27:50;4.68;;;2.28;;
64875;SDS011;51369;49.862;9.908;2023-11-21T12:30:17;5.63;;;2.33;;
64875;SDS011;51369;49.862;9.908;2023-11-21T12:32:48;2.97;;;2.05;;
64875;SDS011;51369;49.862;9.908;2023-11-21T12:35:16;3.20;;;1.85;;
64875;SDS011;51369;49.862;9.908;2023-11-21T12:37:44;4.30;;;2.20;;
64875;SDS011;51369;49.862;9.908;2023-11-21T12:40:11;4.53;;;2.60;;
64875;SDS011;51369;49.862;9.908;2023-11-21T12:42:41;5.07;;;2.67;;
64875;SDS011;51369;49.862;9.908;2023-11-21T12:47:49;3.67;;;2.03;;
64875;SDS011;51369;49.862;9.908;2023-11-21T12:50:18;5.95;;;2.30;;
64875;SDS011;51369;49.862;9.908;2023-11-21T12:52:48;6.03;;;1.90;;
64875;SDS011;51369;49.862;9.908;2023-11-21T12:55:18;4.93;;;2.08;;
64875;SDS011;51369;49.862;9.908;2023-11-21T12:57:50;8.10;;;2.15;;
64875;SDS011;51369;49.862;9.908;2023-11-21T13:00:17;6.18;;;2.30;;
64875;SDS011;51369;49.862;9.908;2023-11-21T13:02:52;6.90;;;2.25;;
64875;SDS011;51369;49.862;9.908;2023-11-21T13:05:29;4.57;;;1.90;;
64875;SDS011;51369;49.862;9.908;2023-11-21T13:07:56;6.30;;;2.30;;
64875;SDS011;51369;49.862;9.908;2023-11-21T13:10:24;4.93;;;1.77;;
64875;SDS011;51369;49.862;9.908;2023-11-21T13:12:51;10.48;;;2.50;;
64875;SDS011;51369;49.862;9.908;2023-11-21T13:15:17;6.40;;;2.63;;
64875;SDS011;51369;49.862;9.908;2023-11-21T13:17:45;9.27;;;2.88;;
64875;SDS011;51369;49.862;9.908;2023-11-21T13:20:11;6.28;;;2.70;;
64875;SDS011;51369;49.862;9.908;2023-11-21T13:22:50;4.32;;;2.35;;
64875;SDS011;51369;49.862;9.908;2023-11-21T13:25:24;5.03;;;2.10;;
64875;SDS011;51369;49.862;9.908;2023-11-21T13:27:54;6.00;;;2.80;;
64875;SDS011;51369;49.862;9.908;2023-11-21T13:30:20;7.25;;;2.53;;
64875;SDS011;51369;49.862;9.908;2023-11-21T13:32:55;9.15;;;2.30;;
64875;SDS011;51369;49.862;9.908;2023-11-21T13:35:27;6.00;;;2.58;;
64875;SDS011;51369;49.862;9.908;2023-11-21T13:37:57;6.05;;;2.50;;
64875;SDS011;51369;49.862;9.908;2023-11-21T13:40:30;4.28;;;2.03;;
64875;SDS011;51369;49.862;9.908;2023-11-21T13:42:56;4.40;;;2.25;;
64875;SDS011;51369;49.862;9.908;2023-11-21T13:45:27;5.70;;;2.03;;
64875;SDS011;51369;49.862;9.908;2023-11-21T13:47:53;4.88;;;2.53;;
64875;SDS011;51369;49.862;9.908;2023-11-21T13:50:25;8.05;;;3.13;;
64875;SDS011;51369;49.862;9.908;2023-11-21T13:52:58;9.50;;;3.13;;
64875;SDS011;51369;49.862;9.908;2023-11-21T13:55:28;7.95;;;3.15;;
64875;SDS011;51369;49.862;9.908;2023-11-21T13:57:53;8.90;;;2.58;;
64875;SDS011;51369;49.862;9.908;2023-11-21T14:00:19;9.38;;;2.83;;
64875;SDS011;51369;49.862;9.908;2023-11-21T14:03:02;13.75;;;3.50;;
64875;SDS011;51369;49.862;9.908;2023-11-21T14:05:33;9.65;;;3.25;;
64875;SDS011;51369;49.862;9.908;2023-11-21T14:07:59;6.13;;;3.70;;
64875;SDS011;51369;49.862;9.908;2023-11-21T14:10:30;8.93;;;3.88;;
64875;SDS011;51369;49.862;9.908;2023-11-21T14:13:15;13.52;;;4.63;;
64875;SDS011;51369;49.862;9.908;2023-11-21T14:15:44;9.05;;;3.63;;
64875;SDS011;51369;49.862;9.908;2023-11-21T14:18:11;6.90;;;3.83;;
64875;SDS011;51369;49.862;9.908;2023-11-21T14:20:42;6.30;;;4.05;;
64875;SDS011;51369;49.862;9.908;2023-11-21T14:23:09;8.27;;;4.15;;
64875;SDS011;51369;49.862;9.908;2023-11-21T14:25:36;9.77;;;3.90;;
64875;SDS011;51369;49.862;9.908;2023-11-21T14:28:02;5.72;;;3.47;;
64875;SDS011;51369;49.862;9.908;2023-11-21T14:30:29;7.68;;;4.32;;
64875;SDS011;51369;49.862;9.908;2023-11-21T14:32:57;7.53;;;4.32;;
64875;SDS011;51369;49.862;9.908;2023-11-21T14:35:26;10.88;;;5.18;;
64875;SDS011;51369;49.862;9.908;2023-11-21T14:37:52;10.82;;;5.07;;
64875;SDS011;51369;49.862;9.908;2023-11-21T14:40:17;9.27;;;4.88;;
64875;SDS011;51369;49.862;9.908;2023-11-21T14:42:49;13.93;;;5.60;;
64875;SDS011;51369;49.862;9.908;2023-11-21T14:45:18;9.10;;;4.78;;
64875;SDS011;51369;49.862;9.908;2023-11-21T14:47:48;9.82;;;4.97;;
64875;SDS011;51369;49.862;9.908;2023-11-21T14:50:43;10.73;;;5.63;;
64875;SDS011;51369;49.862;9.908;2023-11-21T14:53:23;13.60;;;5.97;;
64875;SDS011;51369;49.862;9.908;2023-11-21T14:56:08;12.07;;;6.03;;